Time;durP1;ratioP1;P1;durP2;ratioP2;P2;SDS_P1;SDS_P2;PMS_P1;PMS_P2;Temp;Humidity;BMP_temperature;BMP_pressure;BME280_temperature;BME280_humidity;BME280_pressure;Samples;Min_cycle;Max_cycle;Signal;HPM_P1;HPM_P2
2022/09/29 00:02:07;;;;;;;28.45;19.48;;;;;;;;;;4348083;33;20265;-87
2022/09/29 00:04:34;;;;;;;43.65;18.92;;;;;;;;;;4347446;33;20320;-87
2022/09/29 00:07:01;;;;;;;38.38;16.42;;;;;;;;;;4347825;33;20387;-87
2022/09/29 00:09:27;;;;;;;45.00;18.92;;;;;;;;;;4347884;33;20313;-87
2022/09/29 00:11:55;;;;;;;9.52;5.82;;;;;;;;;;4347936;33;20207;-87
2022/09/29 00:14:22;;;;;;;17.90;11.68;;;;;;;;;;4348137;33;20215;-88
2022/09/29 00:16:51;;;;;;;9.02;4.70;;;;;;;;;;4347897;33;20207;-88
2022/09/29 00:19:19;;;;;;;7.03;3.37;;;;;;;;;;4347321;33;20665;-87
2022/09/29 00:21:46;;;;;;;7.53;4.25;;;;;;;;;;4347869;33;20729;-88
2022/09/29 00:24:13;;;;;;;9.02;4.60;;;;;;;;;;4347881;33;20744;-87
2022/09/29 00:26:39;;;;;;;11.27;5.65;;;;;;;;;;4347612;33;20226;-86
2022/09/29 00:29:06;;;;;;;6.78;4.40;;;;;;;;;;4348023;33;20226;-87
2022/09/29 00:31:34;;;;;;;5.95;3.42;;;;;;;;;;4347708;33;20221;-87
2022/09/29 00:34:02;;;;;;;3.37;2.45;;;;;;;;;;4347278;33;20214;-86
2022/09/29 00:36:29;;;;;;;8.43;3.33;;;;;;;;;;4347688;33;20229;-87
2022/09/29 00:38:57;;;;;;;7.82;3.12;;;;;;;;;;4347239;33;20222;-87
2022/09/29 00:41:26;;;;;;;11.95;4.60;;;;;;;;;;4347449;33;20300;-87
2022/09/29 00:43:57;;;;;;;8.85;3.03;;;;;;;;;;4347385;33;20237;-87
2022/09/29 00:46:34;;;;;;;15.07;3.08;;;;;;;;;;4347577;33;20214;-87
2022/09/29 00:49:08;;;;;;;13.15;3.65;;;;;;;;;;4347301;33;20280;-86
2022/09/29 00:51:39;;;;;;;7.32;2.90;;;;;;;;;;4347729;33;20287;-86
2022/09/29 00:54:07;;;;;;;7.72;2.92;;;;;;;;;;4347008;33;20222;-87
2022/09/29 00:56:37;;;;;;;6.47;3.35;;;;;;;;;;4347235;33;20295;-87
2022/09/29 00:59:09;;;;;;;5.75;3.08;;;;;;;;;;4346757;33;20327;-87
2022/09/29 01:01:36;;;;;;;9.00;2.75;;;;;;;;;;4347043;33;20557;-87
2022/09/29 01:04:09;;;;;;;8.13;3.28;;;;;;;;;;4347328;33;20240;-87
2022/09/29 01:06:39;;;;;;;11.02;4.03;;;;;;;;;;4347405;33;20211;-86
2022/09/29 01:09:08;;;;;;;7.70;3.33;;;;;;;;;;4347456;33;20215;-87
2022/09/29 01:11:36;;;;;;;4.50;3.03;;;;;;;;;;4346660;33;20246;-86
2022/09/29 01:14:06;;;;;;;4.55;3.33;;;;;;;;;;4346694;33;20245;-86
2022/09/29 01:16:35;;;;;;;7.50;3.05;;;;;;;;;;4347246;33;20639;-86
2022/09/29 01:19:06;;;;;;;10.13;3.53;;;;;;;;;;4346650;33;20650;-87
2022/09/29 01:21:40;;;;;;;9.80;3.60;;;;;;;;;;4346646;33;20514;-87
2022/09/29 01:24:30;;;;;;;4.90;3.47;;;;;;;;;;4347255;33;20218;-87
2022/09/29 01:27:19;;;;;;;9.05;4.45;;;;;;;;;;4347087;33;20216;-87
2022/09/29 01:30:07;;;;;;;9.77;3.83;;;;;;;;;;4346507;33;20219;-87
2022/09/29 01:33:08;;;;;;;8.23;3.90;;;;;;;;;;4347113;33;20296;-87
2022/09/29 01:35:44;;;;;;;11.30;4.00;;;;;;;;;;4339320;33;20261;-87
2022/09/29 01:38:28;;;;;;;6.82;3.65;;;;;;;;;;4347084;33;20218;-88
2022/09/29 01:41:05;;;;;;;13.00;3.87;;;;;;;;;;4347137;33;20296;-87
2022/09/29 01:43:36;;;;;;;7.05;3.35;;;;;;;;;;4346894;33;20226;-87
2022/09/29 01:46:08;;;;;;;9.55;3.12;;;;;;;;;;4347067;33;20203;-87
2022/09/29 01:48:40;;;;;;;7.97;4.00;;;;;;;;;;4346946;33;20556;-87
2022/09/29 01:51:12;;;;;;;6.40;3.05;;;;;;;;;;4347327;33;20277;-87
2022/09/29 01:53:45;;;;;;;6.18;3.15;;;;;;;;;;4347004;33;20245;-88
2022/09/29 01:56:16;;;;;;;7.25;3.15;;;;;;;;;;4351595;33;20269;-85
2022/09/29 01:58:51;;;;;;;12.00;3.42;;;;;;;;;;4355548;33;20227;-85
2022/09/29 02:01:22;;;;;;;4.68;2.87;;;;;;;;;;4356576;33;20217;-85
2022/09/29 02:03:54;;;;;;;7.00;3.30;;;;;;;;;;4356673;33;20223;-85
2022/09/29 02:06:25;;;;;;;10.45;3.70;;;;;;;;;;4355630;33;20220;-87
2022/09/29 02:08:54;;;;;;;6.72;3.45;;;;;;;;;;4350193;33;20223;-87
2022/09/29 02:11:22;;;;;;;5.97;3.40;;;;;;;;;;4349871;33;20231;-87
2022/09/29 02:13:52;;;;;;;9.13;3.58;;;;;;;;;;4349976;33;20241;-87
2022/09/29 02:16:23;;;;;;;5.78;3.45;;;;;;;;;;4350101;33;20229;-87
2022/09/29 02:18:54;;;;;;;15.77;4.05;;;;;;;;;;4349561;33;20296;-87
2022/09/29 02:21:22;;;;;;;9.40;3.80;;;;;;;;;;4349458;33;20207;-86
2022/09/29 02:23:50;;;;;;;13.62;3.85;;;;;;;;;;4349652;33;20288;-87
2022/09/29 02:26:18;;;;;;;7.90;3.70;;;;;;;;;;4349311;33;20242;-87
2022/09/29 02:28:45;;;;;;;7.72;3.80;;;;;;;;;;4349419;33;20421;-87
2022/09/29 02:31:13;;;;;;;8.45;3.75;;;;;;;;;;4349362;33;20203;-87
2022/09/29 02:33:39;;;;;;;9.80;3.55;;;;;;;;;;4349221;33;20227;-87
2022/09/29 02:36:22;;;;;;;8.80;4.15;;;;;;;;;;4349126;33;20206;-87
2022/09/29 02:38:54;;;;;;;7.78;3.72;;;;;;;;;;4349388;33;20628;-87
2022/09/29 02:41:33;;;;;;;4.05;2.50;;;;;;;;;;4349262;33;20202;-87
2022/09/29 02:44:25;;;;;;;4.63;2.50;;;;;;;;;;4349169;33;20219;-87
2022/09/29 02:47:16;;;;;;;4.85;2.92;;;;;;;;;;4349205;33;20203;-87
2022/09/29 02:50:05;;;;;;;4.90;2.62;;;;;;;;;;4348598;33;20223;-87
2022/09/29 02:52:43;;;;;;;7.80;3.05;;;;;;;;;;4349273;33;20214;-87
2022/09/29 02:55:17;;;;;;;15.15;3.65;;;;;;;;;;4349272;33;20221;-87
2022/09/29 02:57:50;;;;;;;4.55;3.15;;;;;;;;;;4348889;33;20548;-87
2022/09/29 03:00:19;;;;;;;7.65;4.20;;;;;;;;;;4348564;33;20211;-87
2022/09/29 03:02:46;;;;;;;6.32;3.75;;;;;;;;;;4348386;33;20281;-87
2022/09/29 03:05:15;;;;;;;8.77;3.78;;;;;;;;;;4348884;33;20237;-87
2022/09/29 03:07:43;;;;;;;11.98;4.68;;;;;;;;;;4348752;33;20203;-87
2022/09/29 03:10:12;;;;;;;7.35;4.68;;;;;;;;;;4348725;33;20221;-87
2022/09/29 03:12:39;;;;;;;9.45;4.50;;;;;;;;;;4348641;33;20225;-87
2022/09/29 03:15:07;;;;;;;7.35;4.07;;;;;;;;;;4347946;33;20335;-87
2022/09/29 03:17:34;;;;;;;11.60;3.83;;;;;;;;;;4348037;33;20555;-87
2022/09/29 03:20:01;;;;;;;11.60;4.45;;;;;;;;;;4348014;33;20214;-88
2022/09/29 03:22:28;;;;;;;8.20;3.62;;;;;;;;;;4348705;33;20195;-87
2022/09/29 03:24:57;;;;;;;5.37;3.72;;;;;;;;;;4348527;33;20244;-87
2022/09/29 03:27:24;;;;;;;7.40;4.20;;;;;;;;;;4347980;33;20203;-87
2022/09/29 03:29:50;;;;;;;4.90;3.22;;;;;;;;;;4347982;33;20294;-87
2022/09/29 03:32:18;;;;;;;11.23;4.15;;;;;;;;;;4348467;33;20224;-87
2022/09/29 03:34:44;;;;;;;11.30;4.15;;;;;;;;;;4348616;33;20583;-87
2022/09/29 03:37:11;;;;;;;12.25;3.80;;;;;;;;;;4348391;33;20590;-87
2022/09/29 03:39:38;;;;;;;11.98;4.30;;;;;;;;;;4347716;33;20227;-86
2022/09/29 03:42:06;;;;;;;12.45;4.43;;;;;;;;;;4348329;33;20215;-87
2022/09/29 03:44:33;;;;;;;9.95;3.90;;;;;;;;;;4348342;33;20666;-86
2022/09/29 03:47:00;;;;;;;8.98;4.18;;;;;;;;;;4348401;33;20215;-87
2022/09/29 03:49:27;;;;;;;10.63;4.28;;;;;;;;;;4347637;33;20242;-87
2022/09/29 03:51:54;;;;;;;6.03;4.07;;;;;;;;;;4348182;33;20275;-86
2022/09/29 03:54:23;;;;;;;14.80;3.90;;;;;;;;;;4348237;33;20288;-88
2022/09/29 03:56:49;;;;;;;10.65;4.75;;;;;;;;;;4348282;33;20218;-87
2022/09/29 03:59:18;;;;;;;18.35;5.72;;;;;;;;;;4347298;33;20336;-87
2022/09/29 04:01:47;;;;;;;12.98;6.60;;;;;;;;;;4347856;33;20278;-87
2022/09/29 04:04:14;;;;;;;21.40;6.43;;;;;;;;;;4347865;33;20637;-87
2022/09/29 04:06:41;;;;;;;13.35;6.15;;;;;;;;;;4347975;33;20211;-87
2022/09/29 04:09:08;;;;;;;16.48;5.82;;;;;;;;;;4347666;33;20241;-87
2022/09/29 04:11:35;;;;;;;10.23;5.55;;;;;;;;;;4347631;33;20605;-87
2022/09/29 04:14:02;;;;;;;13.40;5.93;;;;;;;;;;4347435;33;20310;-87
2022/09/29 04:16:30;;;;;;;13.70;6.25;;;;;;;;;;4347833;33;20227;-87
2022/09/29 04:18:57;;;;;;;20.45;6.50;;;;;;;;;;4347722;33;20707;-87
2022/09/29 04:21:23;;;;;;;15.90;7.93;;;;;;;;;;4347624;33;20211;-87
2022/09/29 04:23:50;;;;;;;14.40;7.15;;;;;;;;;;4347714;33;20223;-87
2022/09/29 04:26:19;;;;;;;16.53;8.10;;;;;;;;;;4347765;33;20641;-86
2022/09/29 04:28:46;;;;;;;18.63;8.70;;;;;;;;;;4347294;33;20627;-87
2022/09/29 04:31:13;;;;;;;20.87;9.67;;;;;;;;;;4347336;33;20215;-86
2022/09/29 04:33:41;;;;;;;17.92;10.27;;;;;;;;;;4347785;33;20256;-87
2022/09/29 04:36:08;;;;;;;22.73;9.85;;;;;;;;;;4347528;33;20662;-86
2022/09/29 04:38:35;;;;;;;21.08;8.75;;;;;;;;;;4347242;33;20215;-86
2022/09/29 04:41:02;;;;;;;24.60;8.93;;;;;;;;;;4347335;33;20194;-89
2022/09/29 04:43:28;;;;;;;26.53;9.43;;;;;;;;;;4347520;33;20237;-87
2022/09/29 04:46:02;;;;;;;22.67;8.75;;;;;;;;;;4347367;33;20257;-87
2022/09/29 04:48:28;;;;;;;16.37;8.73;;;;;;;;;;4347097;33;20227;-86
2022/09/29 04:50:57;;;;;;;15.90;7.87;;;;;;;;;;4346514;33;20662;-87
2022/09/29 04:53:23;;;;;;;24.60;7.60;;;;;;;;;;4346739;33;20226;-87
2022/09/29 04:55:50;;;;;;;13.82;5.78;;;;;;;;;;4346970;33;20261;-89
2022/09/29 04:58:17;;;;;;;18.87;5.93;;;;;;;;;;4346964;33;20380;-87
2022/09/29 05:00:44;;;;;;;24.25;5.78;;;;;;;;;;4346469;33;20232;-86
2022/09/29 05:03:11;;;;;;;14.52;5.60;;;;;;;;;;4347153;33;20627;-89
2022/09/29 05:05:38;;;;;;;10.50;5.05;;;;;;;;;;4347353;33;20221;-88
2022/09/29 05:08:06;;;;;;;20.05;7.43;;;;;;;;;;4347675;33;20226;-88
2022/09/29 05:10:34;;;;;;;18.70;7.93;;;;;;;;;;4347322;33;20562;-88
2022/09/29 05:13:01;;;;;;;20.48;9.65;;;;;;;;;;4346883;33;20506;-87
2022/09/29 05:15:28;;;;;;;20.90;8.68;;;;;;;;;;4347376;33;20273;-87
2022/09/29 05:17:55;;;;;;;15.63;7.25;;;;;;;;;;4347334;33;20203;-87
2022/09/29 05:20:21;;;;;;;12.95;4.62;;;;;;;;;;4347149;33;20291;-87
2022/09/29 05:22:48;;;;;;;11.93;5.22;;;;;;;;;;4346932;33;20225;-88
2022/09/29 05:25:17;;;;;;;14.73;5.55;;;;;;;;;;4347176;33;20583;-88
2022/09/29 05:27:44;;;;;;;15.35;6.03;;;;;;;;;;4347058;33;20548;-88
2022/09/29 05:30:11;;;;;;;12.73;4.60;;;;;;;;;;4347557;33;20219;-87
2022/09/29 05:32:38;;;;;;;10.05;3.67;;;;;;;;;;4347522;33;20368;-87
2022/09/29 05:35:06;;;;;;;8.63;3.67;;;;;;;;;;4346731;33;20233;-89
2022/09/29 05:37:33;;;;;;;10.18;4.57;;;;;;;;;;4347346;33;20537;-88
2022/09/29 05:40:00;;;;;;;6.82;4.10;;;;;;;;;;4348053;33;20219;-87
2022/09/29 05:42:31;;;;;;;6.78;3.25;;;;;;;;;;4350401;33;20278;-89
2022/09/29 05:44:59;;;;;;;17.00;4.50;;;;;;;;;;4349908;33;20218;-88
2022/09/29 05:47:25;;;;;;;10.38;4.35;;;;;;;;;;4350296;33;20202;-88
2022/09/29 05:49:52;;;;;;;12.63;4.90;;;;;;;;;;4349297;33;20285;-88
2022/09/29 05:52:19;;;;;;;13.15;4.53;;;;;;;;;;4349905;33;20588;-88
2022/09/29 05:54:49;;;;;;;11.45;3.80;;;;;;;;;;4350444;33;20668;-87
2022/09/29 05:57:16;;;;;;;14.02;4.45;;;;;;;;;;4350586;33;20211;-87
2022/09/29 05:59:44;;;;;;;8.20;4.35;;;;;;;;;;4349576;33;20227;-88
2022/09/29 06:02:12;;;;;;;6.50;4.37;;;;;;;;;;4350207;33;20221;-87
2022/09/29 06:04:39;;;;;;;11.10;4.25;;;;;;;;;;4349913;33;20252;-89
2022/09/29 06:07:05;;;;;;;9.90;4.22;;;;;;;;;;4350066;33;20207;-86
2022/09/29 06:09:34;;;;;;;8.30;5.10;;;;;;;;;;4349377;33;20219;-88
2022/09/29 06:12:02;;;;;;;7.87;4.55;;;;;;;;;;4350058;33;20219;-89
2022/09/29 06:14:28;;;;;;;5.45;4.12;;;;;;;;;;4349623;33;20241;-90
2022/09/29 06:16:57;;;;;;;15.25;5.12;;;;;;;;;;4349551;33;20219;-88
2022/09/29 06:19:23;;;;;;;17.00;5.53;;;;;;;;;;4349474;33;20281;-88
2022/09/29 06:21:50;;;;;;;20.05;6.18;;;;;;;;;;4349731;33;20556;-89
2022/09/29 06:24:17;;;;;;;12.82;5.37;;;;;;;;;;4350144;33;20562;-88
2022/09/29 06:26:44;;;;;;;12.55;5.60;;;;;;;;;;4350716;33;20686;-87
2022/09/29 06:29:10;;;;;;;13.18;5.05;;;;;;;;;;4352436;33;20223;-88
2022/09/29 06:31:38;;;;;;;9.93;4.43;;;;;;;;;;4350554;33;20292;-88
2022/09/29 06:34:06;;;;;;;12.77;3.70;;;;;;;;;;4350172;33;20232;-88
2022/09/29 06:39:21;;;;;;;9.75;3.97;;;;;;;;;;4350023;33;20668;-88
2022/09/29 06:41:52;;;;;;;7.85;4.28;;;;;;;;;;4350186;33;20293;-89
2022/09/29 06:44:19;;;;;;;18.30;5.20;;;;;;;;;;4352934;33;20187;-89
2022/09/29 06:46:46;;;;;;;23.83;5.00;;;;;;;;;;4353537;33;20207;-89
2022/09/29 06:49:15;;;;;;;25.65;5.20;;;;;;;;;;4351234;33;20218;-89
2022/09/29 06:51:42;;;;;;;11.20;4.18;;;;;;;;;;4348578;33;20552;-89
2022/09/29 06:54:10;;;;;;;11.00;4.55;;;;;;;;;;4348605;33;20281;-87
2022/09/29 06:56:36;;;;;;;12.40;4.05;;;;;;;;;;4348820;33;20207;-88
2022/09/29 06:59:06;;;;;;;11.73;4.28;;;;;;;;;;4348640;33;20227;-88
2022/09/29 07:01:33;;;;;;;12.98;5.05;;;;;;;;;;4348603;33;20568;-88
2022/09/29 07:04:01;;;;;;;9.68;4.50;;;;;;;;;;4348514;33;20231;-88
2022/09/29 07:06:30;;;;;;;7.12;4.32;;;;;;;;;;4348078;33;20594;-87
2022/09/29 07:08:58;;;;;;;18.17;4.87;;;;;;;;;;4354161;33;20230;-88
2022/09/29 07:11:25;;;;;;;9.77;4.55;;;;;;;;;;4351994;33;20287;-88
2022/09/29 07:13:52;;;;;;;23.23;6.05;;;;;;;;;;4349103;33;20235;-89
2022/09/29 07:16:19;;;;;;;20.88;5.32;;;;;;;;;;4350101;33;20211;-89
2022/09/29 07:18:47;;;;;;;17.70;5.72;;;;;;;;;;4349233;33;20215;-88
2022/09/29 07:21:17;;;;;;;13.90;5.72;;;;;;;;;;4349589;33;20633;-88
2022/09/29 07:23:46;;;;;;;14.70;5.43;;;;;;;;;;4349469;33;20712;-88
2022/09/29 07:26:15;;;;;;;21.50;5.12;;;;;;;;;;4351900;33;20286;-88
2022/09/29 07:28:42;;;;;;;8.15;4.12;;;;;;;;;;4350050;33;20310;-87
2022/09/29 07:31:12;;;;;;;7.35;3.30;;;;;;;;;;4349041;33;20292;-88
2022/09/29 07:33:38;;;;;;;10.18;4.20;;;;;;;;;;4347757;33;20297;-89
2022/09/29 07:36:06;;;;;;;9.18;4.45;;;;;;;;;;4348356;33;20203;-87
2022/09/29 07:38:33;;;;;;;7.85;2.72;;;;;;;;;;4348375;33;20289;-88
2022/09/29 07:41:02;;;;;;;8.40;3.28;;;;;;;;;;4348667;33;20710;-88
2022/09/29 07:43:30;;;;;;;12.10;2.90;;;;;;;;;;4348523;33;20301;-88
2022/09/29 07:45:59;;;;;;;10.52;3.47;;;;;;;;;;4350153;33;20268;-90
2022/09/29 07:48:26;;;;;;;6.12;3.00;;;;;;;;;;4348023;33;20281;-88
2022/09/29 07:51:01;;;;;;;6.60;2.85;;;;;;;;;;4348526;33;20219;-88
2022/09/29 07:53:28;;;;;;;9.13;2.53;;;;;;;;;;4348897;33;20215;-88
2022/09/29 07:55:57;;;;;;;9.60;3.22;;;;;;;;;;4351695;33;20239;-89
2022/09/29 07:58:25;;;;;;;9.52;3.28;;;;;;;;;;4349451;33;20234;-88
2022/09/29 08:00:55;;;;;;;5.53;2.10;;;;;;;;;;4348130;33;20286;-89
2022/09/29 08:03:24;;;;;;;7.72;3.15;;;;;;;;;;4347805;33;20310;-88
2022/09/29 08:05:51;;;;;;;12.68;3.03;;;;;;;;;;4348237;33;20195;-89
2022/09/29 08:08:18;;;;;;;6.90;3.75;;;;;;;;;;4348278;33;20218;-88
2022/09/29 08:10:45;;;;;;;5.87;2.12;;;;;;;;;;4348172;33;20641;-89
2022/09/29 08:13:12;;;;;;;9.95;2.37;;;;;;;;;;4348513;33;20218;-88
2022/09/29 08:15:40;;;;;;;4.47;2.30;;;;;;;;;;4348040;33;20229;-88
2022/09/29 08:18:06;;;;;;;6.95;2.35;;;;;;;;;;4347860;33;20265;-89
2022/09/29 08:20:35;;;;;;;6.70;1.90;;;;;;;;;;4347792;33;20580;-87
2022/09/29 08:23:02;;;;;;;3.47;2.40;;;;;;;;;;4347829;33;20206;-87
2022/09/29 08:25:29;;;;;;;7.90;2.42;;;;;;;;;;4347837;33;20576;-89
2022/09/29 08:27:55;;;;;;;8.15;1.95;;;;;;;;;;4347634;33;20211;-89
2022/09/29 08:30:22;;;;;;;5.05;2.10;;;;;;;;;;4347707;33;20219;-89
2022/09/29 08:32:53;;;;;;;8.40;2.00;;;;;;;;;;4348051;33;20211;-89
2022/09/29 08:35:20;;;;;;;9.50;3.35;;;;;;;;;;4347863;33;20353;-88
2022/09/29 08:37:47;;;;;;;6.30;2.95;;;;;;;;;;4347318;33;20207;-87
2022/09/29 08:40:14;;;;;;;10.70;2.22;;;;;;;;;;4347827;33;20568;-90
2022/09/29 08:42:51;;;;;;;4.68;1.85;;;;;;;;;;4347465;33;20207;-88
2022/09/29 08:45:25;;;;;;;8.13;2.25;;;;;;;;;;4347152;33;20214;-88
2022/09/29 08:48:03;;;;;;;8.27;2.87;;;;;;;;;;4347404;33;20219;-88
2022/09/29 08:50:35;;;;;;;13.98;3.22;;;;;;;;;;4347653;33;20303;-89
2022/09/29 08:53:06;;;;;;;9.20;2.95;;;;;;;;;;4347387;33;20257;-88
2022/09/29 08:55:41;;;;;;;11.60;3.30;;;;;;;;;;4347270;33;20297;-88
2022/09/29 08:58:13;;;;;;;5.05;2.72;;;;;;;;;;4347236;33;20612;-88
2022/09/29 09:00:46;;;;;;;5.12;2.30;;;;;;;;;;4347082;33;20278;-89
2022/09/29 09:03:42;;;;;;;11.15;2.40;;;;;;;;;;4347133;33;20536;-88
2022/09/29 09:06:19;;;;;;;10.23;2.30;;;;;;;;;;4313980;33;20239;-88
2022/09/29 09:09:10;;;;;;;7.62;2.55;;;;;;;;;;4347253;33;20652;-89
2022/09/29 09:11:52;;;;;;;3.87;2.20;;;;;;;;;;4347291;33;20207;-88
2022/09/29 09:14:38;;;;;;;8.75;2.62;;;;;;;;;;4348599;33;20236;-88
2022/09/29 09:17:16;;;;;;;15.23;3.03;;;;;;;;;;4348865;33;20268;-89
2022/09/29 09:20:10;;;;;;;8.93;2.90;;;;;;;;;;4350774;33;20242;-89
2022/09/29 09:22:50;;;;;;;11.75;2.85;;;;;;;;;;4342583;33;20238;-89
2022/09/29 09:25:25;;;;;;;13.18;3.47;;;;;;;;;;4351084;33;20277;-89
2022/09/29 09:28:02;;;;;;;8.43;3.03;;;;;;;;;;4351299;33;20221;-89
2022/09/29 09:30:38;;;;;;;13.93;2.62;;;;;;;;;;4350885;33;20256;-89
2022/09/29 09:33:12;;;;;;;5.70;2.95;;;;;;;;;;4350600;33;20503;-88
2022/09/29 09:35:45;;;;;;;5.35;2.50;;;;;;;;;;4350579;33;20242;-89
2022/09/29 09:38:16;;;;;;;7.75;2.33;;;;;;;;;;4350179;33;20227;-89
2022/09/29 09:40:46;;;;;;;9.07;2.70;;;;;;;;;;4350254;33;20229;-89
2022/09/29 09:43:20;;;;;;;6.03;2.87;;;;;;;;;;4350429;33;20329;-89
2022/09/29 09:45:57;;;;;;;6.95;2.87;;;;;;;;;;4350040;33;20215;-89
2022/09/29 09:48:30;;;;;;;9.73;2.72;;;;;;;;;;4349759;33;20222;-88
2022/09/29 09:50:59;;;;;;;11.02;2.65;;;;;;;;;;4349694;33;20617;-89
2022/09/29 09:53:32;;;;;;;6.07;2.10;;;;;;;;;;4349987;33;20325;-88
2022/09/29 09:56:09;;;;;;;8.23;2.92;;;;;;;;;;4350107;33;20286;-89
2022/09/29 09:58:51;;;;;;;8.70;3.30;;;;;;;;;;4349745;33;20219;-89
2022/09/29 10:01:18;;;;;;;9.30;2.67;;;;;;;;;;4350034;33;20211;-90
2022/09/29 10:03:45;;;;;;;12.43;3.05;;;;;;;;;;4349714;33;20210;-88
2022/09/29 10:06:14;;;;;;;7.68;2.92;;;;;;;;;;4349010;33;20540;-88
2022/09/29 10:08:41;;;;;;;8.88;3.40;;;;;;;;;;4349518;33;20282;-88
2022/09/29 10:11:22;;;;;;;3.95;2.47;;;;;;;;;;4349795;33;20257;-88
2022/09/29 10:13:52;;;;;;;6.05;2.75;;;;;;;;;;4349452;33;20230;-90
2022/09/29 10:16:27;;;;;;;9.45;3.55;;;;;;;;;;4349689;33;20215;-89
2022/09/29 10:18:54;;;;;;;5.93;2.95;;;;;;;;;;4349012;33;20744;-89
2022/09/29 10:21:37;;;;;;;5.62;2.78;;;;;;;;;;4349278;33;20245;-89
2022/09/29 10:24:06;;;;;;;9.40;3.00;;;;;;;;;;4349333;33;20245;-89
2022/09/29 10:26:36;;;;;;;8.65;2.67;;;;;;;;;;4348168;33;20237;-89
2022/09/29 10:29:18;;;;;;;8.27;2.78;;;;;;;;;;4349156;33;20257;-89
2022/09/29 10:31:59;;;;;;;7.57;3.22;;;;;;;;;;4349316;33;20250;-89
2022/09/29 10:34:27;;;;;;;3.75;1.92;;;;;;;;;;4350308;33;20227;-89
2022/09/29 10:36:58;;;;;;;9.32;7.15;;;;;;;;;;4349643;33;20203;-90
2022/09/29 10:39:41;;;;;;;13.00;5.45;;;;;;;;;;4349325;33;20726;-89
2022/09/29 10:42:22;;;;;;;4.32;1.92;;;;;;;;;;4350204;33;20620;-87
2022/09/29 10:44:54;;;;;;;7.20;3.47;;;;;;;;;;4350661;33;20215;-87
2022/09/29 10:47:22;;;;;;;9.68;2.60;;;;;;;;;;4350797;33;20295;-89
2022/09/29 10:50:08;;;;;;;4.25;2.28;;;;;;;;;;4352346;33;20252;-87
2022/09/29 10:52:37;;;;;;;4.18;2.15;;;;;;;;;;4359181;33;20198;-86
2022/09/29 10:55:06;;;;;;;7.55;2.37;;;;;;;;;;4358811;33;20235;-87
2022/09/29 10:57:36;;;;;;;10.25;3.12;;;;;;;;;;4358532;33;20218;-87
2022/09/29 11:00:05;;;;;;;9.02;2.75;;;;;;;;;;4358245;33;20234;-88
2022/09/29 11:02:36;;;;;;;4.25;2.03;;;;;;;;;;4350044;33;20309;-90
2022/09/29 11:05:05;;;;;;;3.87;1.90;;;;;;;;;;4350185;33;20236;-89
2022/09/29 11:07:33;;;;;;;7.28;2.30;;;;;;;;;;4356980;33;20268;-90
2022/09/29 11:10:01;;;;;;;4.95;2.15;;;;;;;;;;4364055;33;20235;-89
2022/09/29 11:12:32;;;;;;;4.68;2.22;;;;;;;;;;4362501;33;20257;-90
2022/09/29 11:15:00;;;;;;;7.30;2.55;;;;;;;;;;4360518;33;20291;-89
2022/09/29 11:17:28;;;;;;;12.55;2.20;;;;;;;;;;4364226;33;20242;-89
2022/09/29 11:19:58;;;;;;;3.35;2.20;;;;;;;;;;4362029;33;20207;-89
2022/09/29 11:23:01;;;;;;;10.27;2.95;;;;;;;;;;4361141;33;20234;-90
2022/09/29 11:26:01;;;;;;;4.75;1.52;;;;;;;;;;4349567;33;20218;-90
2022/09/29 11:28:52;;;;;;;5.78;1.60;;;;;;;;;;4349723;33;20243;-89
2022/09/29 11:31:39;;;;;;;5.50;1.98;;;;;;;;;;4348689;33;20211;-89
2022/09/29 11:34:33;;;;;;;8.85;1.67;;;;;;;;;;4348344;33;20374;-89
2022/09/29 11:37:11;;;;;;;6.53;1.77;;;;;;;;;;4348225;33;20316;-89
2022/09/29 11:39:46;;;;;;;4.25;1.95;;;;;;;;;;4348646;33;20230;-89
2022/09/29 11:42:38;;;;;;;6.37;2.10;;;;;;;;;;4348925;33;20711;-89
2022/09/29 11:45:13;;;;;;;8.63;1.95;;;;;;;;;;4348091;33;20261;-88
2022/09/29 11:48:23;;;;;;;8.27;1.85;;;;;;;;;;4348704;33;20277;-89
2022/09/29 11:50:58;;;;;;;3.62;1.80;;;;;;;;;;4348228;33;20580;-89
2022/09/29 11:53:44;;;;;;;8.95;2.53;;;;;;;;;;4348455;33;20226;-89
2022/09/29 11:56:30;;;;;;;7.85;1.50;;;;;;;;;;4348674;33;20222;-89
2022/09/29 11:59:31;;;;;;;3.90;1.70;;;;;;;;;;4348419;33;20249;-87
2022/09/29 12:02:17;;;;;;;7.47;1.65;;;;;;;;;;4332965;33;20264;-88
2022/09/29 12:04:54;;;;;;;5.40;1.90;;;;;;;;;;4348374;33;20287;-87
2022/09/29 12:07:30;;;;;;;4.37;1.50;;;;;;;;;;4348790;33;20299;-87
2022/09/29 12:10:09;;;;;;;3.85;1.90;;;;;;;;;;4348358;33;20648;-88
2022/09/29 12:12:42;;;;;;;4.80;2.30;;;;;;;;;;4348552;33;20226;-88
2022/09/29 12:15:25;;;;;;;4.85;2.05;;;;;;;;;;4348503;33;20232;-89
2022/09/29 12:17:56;;;;;;;2.72;1.75;;;;;;;;;;4348383;33;20584;-89
2022/09/29 12:20:26;;;;;;;7.10;2.08;;;;;;;;;;4348899;33;20265;-89
2022/09/29 12:22:56;;;;;;;3.30;1.45;;;;;;;;;;4348182;33;20540;-90
2022/09/29 12:25:26;;;;;;;2.65;1.40;;;;;;;;;;4348298;33;20210;-89
2022/09/29 12:27:56;;;;;;;2.75;1.37;;;;;;;;;;4348023;33;20219;-87
2022/09/29 12:30:28;;;;;;;3.00;1.02;;;;;;;;;;4348338;33;20230;-88
2022/09/29 12:33:00;;;;;;;3.65;1.33;;;;;;;;;;4348266;33;20224;-88
2022/09/29 12:35:34;;;;;;;2.67;1.27;;;;;;;;;;4348371;33;20269;-88
2022/09/29 12:38:13;;;;;;;2.65;1.30;;;;;;;;;;4348205;33;20278;-87
2022/09/29 12:40:44;;;;;;;4.85;1.67;;;;;;;;;;4348337;33;20219;-88
2022/09/29 12:43:19;;;;;;;2.95;1.55;;;;;;;;;;4348337;33;20227;-88
2022/09/29 12:45:57;;;;;;;9.48;2.67;;;;;;;;;;4348196;33;20718;-88
2022/09/29 12:48:33;;;;;;;3.35;2.10;;;;;;;;;;4348538;33;20289;-88
2022/09/29 12:51:08;;;;;;;3.87;1.70;;;;;;;;;;4348250;33;20232;-88
2022/09/29 12:53:40;;;;;;;3.97;1.55;;;;;;;;;;4348338;33;20241;-88
2022/09/29 12:56:12;;;;;;;4.30;1.75;;;;;;;;;;4347986;33;20658;-89
2022/09/29 12:58:43;;;;;;;5.95;1.80;;;;;;;;;;4348148;33;20246;-88
2022/09/29 13:01:22;;;;;;;4.22;1.95;;;;;;;;;;4348268;33;20210;-88
2022/09/29 13:04:30;;;;;;;2.65;1.50;;;;;;;;;;4347776;33;20215;-89
2022/09/29 13:07:34;;;;;;;9.40;2.12;;;;;;;;;;4348277;33;20210;-90
2022/09/29 13:10:13;;;;;;;5.68;2.50;;;;;;;;;;4347256;33;20226;-88
2022/09/29 13:12:59;;;;;;;7.00;2.72;;;;;;;;;;4347991;33;20544;-88
2022/09/29 13:15:44;;;;;;;3.12;1.83;;;;;;;;;;4348127;33;20613;-90
2022/09/29 13:18:28;;;;;;;7.90;1.87;;;;;;;;;;4348566;33;20239;-89
2022/09/29 13:21:04;;;;;;;5.12;2.15;;;;;;;;;;4348389;33;20215;-87
2022/09/29 13:24:00;;;;;;;4.57;2.28;;;;;;;;;;4349118;33;20227;-88
2022/09/29 13:26:58;;;;;;;6.00;2.03;;;;;;;;;;4341536;33;20260;-89
2022/09/29 13:29:27;;;;;;;2.85;2.12;;;;;;;;;;4348020;33;20254;-90
2022/09/29 13:31:55;;;;;;;8.65;2.28;;;;;;;;;;4347224;33;20282;-89
2022/09/29 13:34:29;;;;;;;2.33;1.45;;;;;;;;;;4347187;33;20692;-89
2022/09/29 13:37:07;;;;;;;3.17;1.67;;;;;;;;;;4346937;33;20218;-89
2022/09/29 13:39:34;;;;;;;8.85;2.40;;;;;;;;;;4346804;33;20227;-89
2022/09/29 13:42:38;;;;;;;5.97;2.55;;;;;;;;;;4347428;33;20207;-90
2022/09/29 13:45:33;;;;;;;7.70;2.47;;;;;;;;;;4346893;33;20357;-88
2022/09/29 13:48:02;;;;;;;5.53;2.37;;;;;;;;;;4352171;33;20243;-86
2022/09/29 13:50:46;;;;;;;7.05;2.17;;;;;;;;;;4355762;33;20218;-86
2022/09/29 13:53:35;;;;;;;15.40;2.90;;;;;;;;;;4354867;33;20233;-87
2022/09/29 13:56:18;;;;;;;9.85;3.28;;;;;;;;;;4332749;33;20207;-89
2022/09/29 13:58:59;;;;;;;6.55;2.62;;;;;;;;;;4332610;33;20218;-89
2022/09/29 14:01:31;;;;;;;8.73;2.85;;;;;;;;;;4334598;33;20224;-89
2022/09/29 14:03:58;;;;;;;6.93;2.75;;;;;;;;;;4321657;33;20238;-89
2022/09/29 14:06:28;;;;;;;7.05;3.03;;;;;;;;;;4334822;33;20238;-89
2022/09/29 14:09:02;;;;;;;6.95;3.87;;;;;;;;;;4334658;33;20727;-89
2022/09/29 14:11:33;;;;;;;6.57;2.53;;;;;;;;;;4334632;33;20552;-89
2022/09/29 14:14:05;;;;;;;12.65;3.60;;;;;;;;;;4334901;33;20691;-89
2022/09/29 14:16:53;;;;;;;6.82;3.90;;;;;;;;;;4334838;33;20286;-88
2022/09/29 14:19:36;;;;;;;21.67;4.55;;;;;;;;;;4334399;33;20231;-88
2022/09/29 14:22:06;;;;;;;17.17;3.75;;;;;;;;;;4334900;33;20214;-87
2022/09/29 14:24:48;;;;;;;9.90;3.22;;;;;;;;;;4334576;33;20306;-89
2022/09/29 14:27:35;;;;;;;17.40;3.37;;;;;;;;;;4334430;33;20223;-88
2022/09/29 14:30:39;;;;;;;16.98;4.05;;;;;;;;;;4335371;33;20660;-88
2022/09/29 14:33:12;;;;;;;6.22;3.72;;;;;;;;;;4334833;33;20257;-88
2022/09/29 14:35:40;;;;;;;8.65;2.78;;;;;;;;;;4336323;33;20354;-89
2022/09/29 14:38:15;;;;;;;6.80;3.12;;;;;;;;;;4335032;33;20230;-88
2022/09/29 14:40:55;;;;;;;8.80;3.25;;;;;;;;;;4334704;33;20347;-88
2022/09/29 14:43:27;;;;;;;5.68;3.40;;;;;;;;;;4334907;33;20229;-88
2022/09/29 14:52:36;;;;;;;22.35;4.35;;;;;;;;;;4334253;33;20266;-88
2022/09/29 14:55:14;;;;;;;8.38;3.30;;;;;;;;;;4321176;33;20683;-88
2022/09/29 14:58:01;;;;;;;5.18;3.33;;;;;;;;;;4335147;33;20233;-88
2022/09/29 15:00:40;;;;;;;10.20;3.58;;;;;;;;;;4333850;33;20215;-90
2022/09/29 15:03:08;;;;;;;14.20;4.37;;;;;;;;;;4334392;33;20235;-88
2022/09/29 15:05:36;;;;;;;3.10;2.12;;;;;;;;;;4334229;33;20604;-88
2022/09/29 15:08:20;;;;;;;14.48;2.78;;;;;;;;;;4333936;33;20381;-88
2022/09/29 15:10:48;;;;;;;7.03;2.70;;;;;;;;;;4334192;33;20223;-88
2022/09/29 15:13:18;;;;;;;15.57;4.35;;;;;;;;;;4334261;33;20223;-88
2022/09/29 15:15:48;;;;;;;4.75;2.95;;;;;;;;;;4334122;33;20218;-88
2022/09/29 15:18:38;;;;;;;21.55;3.67;;;;;;;;;;4333569;33;20246;-88
2022/09/29 15:21:12;;;;;;;8.18;3.12;;;;;;;;;;4333807;33;20229;-89